West Point, MS

10:55 AM CST on March 03, 2015 (GMT -0600)
WestWood II | Change Station
CLOSE
Current Station
Personal Weather Station
Location: West Point, MS
Elevation: 240 ft
Nearby Weather Stations
Active Advisory: Winter Storm Watch

Elev 240 ft 33.61 °N, 88.68 °W | Updated 5 seconds ago

Overcast
Overcast
58.1 °F
Feels Like 58.1 °F
N
1.7
Wind Variable Wind from SSE
Gusts 4.7 mph

Today
High -- | Low -- °F
--% Chance of Precip.
Yesterday
High -- | Low -- °F
Precip. -- in
6:21 AM 5:53 PM
Waxing Gibbous, 96% visible
Pressure 30.12 in
Visibility 4.0 miles
Clouds Overcast 200 ft
Dew Point 55 °F
Humidity 90%
Rainfall 0.00 in
Snow Depth Not available.
UV 2 out of 12
Pollen 4.60 out of 12
Air Quality Not available.
Flu Activity Not available.
METAR KSTF 031635Z AUTO 16006KT 4SM -DZ OVC002 13/13 A3012 RMK AO2

More Conditions Fewer Conditions

Pressure 30.12 in
Visibility 4.0 miles
Clouds Overcast 200 ft
Dew Point 55 °F
Humidity 90%
Rainfall 0.00 in
Snow Depth Not available.
UV 2 out of 12
Pollen 4.60 out of 12
Air Quality Not available.
Flu Activity Not available.
METAR KSTF 031635Z AUTO 16006KT 4SM -DZ OVC002 13/13 A3012 RMK AO2

More Conditions Fewer Conditions

10-Day Weather Forecast

Almanac

Astronomy

Mar. 03, 2015 Rise Set
Actual Time
Civil Twilight
Nautical Twilight
Astronomical Twilight
Moon
Length of Visible Light
Length of Day
Tomorrow will be .
, % of the Moon is Illuminated

Today's Extremes

State Highs State Lows

Community

WunderPhotos

Upload Photos

1,802,170 photos uploaded!

WunderBlogs® & News

Nearby

Air Quality

  Air Quality AQ Index Pollutant
Not available.

Snow Depth

Station Depth Elevation

Earthquake Activity

City Distance Mag. Time & Date
Minimum magnitude displayed is 2.5.

Coastal Water Temperatures

Place Temperature

Nearby Weather Stations

Winter Storm Watch
Statement as of 4:40 AM CST on March 03, 2015

... Winter Storm Watch remains in effect from Wednesday evening
through late Wednesday night...

A Winter Storm Watch remains in effect from Wednesday evening
through late Wednesday night.

* Timing: a mix of freezing rain and sleet is expected to develop
Wednesday evening and continue through the overnight. Some snow
could mix in with the precipitation before daybreak.

* Accumulation: significant amounts of ice and sleet are possible.

* Impacts: hazardous travel conditions are likely with power
outages possible.

Precautionary/preparedness actions...

A Winter Storm Watch means there is a potential for significant
snow... sleet... or ice accumulations that may impact travel.
Continue to monitor the latest forecasts.